Time;durP1;ratioP1;P1;durP2;ratioP2;P2;SDS_P1;SDS_P2;PMS_P1;PMS_P2;Temp;Humidity;BMP_temperature;BMP_pressure;BME280_temperature;BME280_humidity;BME280_pressure;Samples;Min_cycle;Max_cycle;Signal;HPM_P1;HPM_P2
2022/01/05 00:02:24;;;;;;;11.80;4.20;;;;;;;19.37;59.46;98801.03;5068567;28;20226;-62
2022/01/05 00:04:50;;;;;;;16.03;3.87;;;;;;;19.38;59.55;98791.25;5068677;28;20210;-62
2022/01/05 00:07:15;;;;;;;14.43;4.50;;;;;;;19.39;59.21;98792.88;5067944;28;20743;-62
2022/01/05 00:09:41;;;;;;;15.83;3.80;;;;;;;19.38;59.26;98796.97;5068015;28;20570;-62
2022/01/05 00:12:07;;;;;;;9.67;4.17;;;;;;;19.40;59.21;98791.63;5068561;28;20479;-62
2022/01/05 00:14:32;;;;;;;10.40;3.93;;;;;;;19.42;59.51;98796.94;5065216;28;20187;-62
2022/01/05 00:16:58;;;;;;;9.43;4.10;;;;;;;19.38;59.34;98787.56;5047187;28;20188;-62
2022/01/05 00:19:23;;;;;;;11.43;4.10;;;;;;;19.37;59.54;98778.16;5077106;28;20513;-62
2022/01/05 00:21:48;;;;;;;9.50;3.67;;;;;;;19.40;58.82;98787.94;5088760;28;20236;-62
2022/01/05 00:24:14;;;;;;;14.63;3.80;;;;;;;19.36;59.47;98785.13;5068433;28;20187;-62
2022/01/05 00:26:39;;;;;;;12.40;4.17;;;;;;;19.35;59.25;98786.34;5068937;28;20171;-62
2022/01/05 00:29:05;;;;;;;13.60;4.23;;;;;;;19.38;59.16;98782.66;5068441;28;20618;-62
2022/01/05 00:31:30;;;;;;;9.20;3.90;;;;;;;19.37;59.12;98778.16;5068187;28;20337;-62
2022/01/05 00:33:56;;;;;;;10.13;4.23;;;;;;;19.35;59.28;98771.22;5067866;28;20206;-62
2022/01/05 00:36:21;;;;;;;17.10;3.70;;;;;;;19.34;59.37;98776.16;5067168;28;20175;-62
2022/01/05 00:38:46;;;;;;;17.27;3.93;;;;;;;19.38;59.18;98774.06;5067781;28;20183;-62
2022/01/05 00:41:12;;;;;;;12.20;3.80;;;;;;;19.34;59.04;98778.19;5068377;28;20179;-62
2022/01/05 00:43:38;;;;;;;8.73;3.50;;;;;;;19.36;59.16;98782.25;5057361;28;20250;-62
2022/01/05 00:46:04;;;;;;;11.00;4.30;;;;;;;19.35;59.40;98780.63;5059232;28;20664;-62
2022/01/05 00:48:35;;;;;;;13.50;3.73;;;;;;;19.32;59.53;98795.78;5068058;28;20586;-63
2022/01/05 00:51:05;;;;;;;11.57;3.80;;;;;;;19.31;59.58;98807.66;5068359;28;20425;-62
2022/01/05 00:53:30;;;;;;;13.47;4.37;;;;;;;19.34;59.21;98807.63;5066474;28;20982;-62
2022/01/05 00:55:56;;;;;;;13.20;4.00;;;;;;;19.32;59.06;98798.63;5068320;28;20421;-62
2022/01/05 00:58:21;;;;;;;9.60;3.67;;;;;;;19.31;59.36;98791.28;5068092;28;20182;-62
2022/01/05 01:00:47;;;;;;;5.93;3.00;;;;;;;19.32;59.22;98798.63;5067342;28;20280;-62
2022/01/05 01:03:12;;;;;;;8.60;3.70;;;;;;;19.33;59.19;98802.31;5067774;28;20202;-62
2022/01/05 01:05:38;;;;;;;10.00;4.20;;;;;;;19.31;59.33;98805.59;5069683;28;20700;-62
2022/01/05 01:08:03;;;;;;;14.03;3.57;;;;;;;19.32;59.43;98815.81;5070706;28;20194;-62
2022/01/05 01:10:29;;;;;;;11.50;3.50;;;;;;;19.33;59.21;98823.19;5071493;28;20183;-62
2022/01/05 01:12:54;;;;;;;10.97;3.43;;;;;;;19.30;59.25;98815.44;5070963;28;20256;-62
2022/01/05 01:15:20;;;;;;;10.93;3.83;;;;;;;19.29;59.14;98816.66;5071315;28;20654;-62
2022/01/05 01:17:45;;;;;;;10.97;4.03;;;;;;;19.27;59.24;98813.41;5076918;28;20174;-62
2022/01/05 01:20:11;;;;;;;7.90;3.50;;;;;;;19.30;59.08;98803.97;5091449;28;20178;-62
2022/01/05 01:22:36;;;;;;;6.50;3.20;;;;;;;19.29;59.49;98810.94;5091832;28;20178;-62
2022/01/05 01:25:03;;;;;;;9.03;3.37;;;;;;;19.26;59.55;98811.78;5092034;28;20579;-62
2022/01/05 01:27:29;;;;;;;8.50;3.10;;;;;;;19.27;59.47;98824.03;5091263;28;20186;-62
2022/01/05 01:29:54;;;;;;;9.63;3.67;;;;;;;19.27;59.11;98824.03;5091778;28;20880;-62
2022/01/05 01:32:19;;;;;;;8.57;3.70;;;;;;;19.27;59.16;98835.50;5079067;28;20203;-62
2022/01/05 01:34:45;;;;;;;12.20;3.80;;;;;;;19.29;59.24;98838.72;5050882;28;20180;-63
2022/01/05 01:37:10;;;;;;;9.57;2.80;;;;;;;19.27;59.09;98835.50;5050720;28;20191;-62
2022/01/05 01:39:36;;;;;;;7.60;2.80;;;;;;;19.26;59.01;98837.53;5051360;28;20179;-62
2022/01/05 01:42:01;;;;;;;6.77;2.90;;;;;;;19.26;59.20;98831.81;5051435;28;20183;-62
2022/01/05 01:44:27;;;;;;;9.90;3.37;;;;;;;19.24;59.22;98834.28;5050770;28;20179;-62
2022/01/05 01:46:53;;;;;;;14.20;3.00;;;;;;;19.22;59.39;98839.59;5059393;28;20178;-63
2022/01/05 01:49:19;;;;;;;8.53;3.27;;;;;;;19.24;59.03;98848.59;5070867;28;20199;-63
2022/01/05 01:51:44;;;;;;;6.90;2.93;;;;;;;19.25;59.17;98855.09;5070727;28;20441;-63
2022/01/05 01:54:10;;;;;;;9.77;2.97;;;;;;;19.24;59.03;98854.31;5071482;28;20183;-63
2022/01/05 01:56:35;;;;;;;6.93;3.07;;;;;;;19.23;59.14;98851.88;5070696;28;20456;-63
2022/01/05 01:59:01;;;;;;;9.37;3.40;;;;;;;19.24;59.19;98853.50;5052003;28;20230;-62
2022/01/05 02:01:27;;;;;;;8.23;3.13;;;;;;;19.24;59.35;98859.22;5052872;28;20171;-63
2022/01/05 02:03:52;;;;;;;11.03;2.80;;;;;;;19.23;58.96;98841.25;5070508;28;20968;-62
2022/01/05 02:06:18;;;;;;;6.93;2.87;;;;;;;19.21;59.23;98825.72;5071018;28;20704;-62
2022/01/05 02:08:43;;;;;;;13.03;3.57;;;;;;;19.19;59.24;98823.25;5071470;28;20182;-62
2022/01/05 02:11:09;;;;;;;7.47;2.93;;;;;;;19.20;59.09;98819.16;5035479;28;20201;-62
2022/01/05 02:13:35;;;;;;;7.47;3.17;;;;;;;19.23;58.77;98829.81;5070938;28;20215;-62
2022/01/05 02:16:00;;;;;;;8.40;2.67;;;;;;;19.20;59.14;98826.91;5070200;28;20444;-63
2022/01/05 02:21:11;;;;;;;5.53;3.33;;;;;;;19.21;58.88;98837.94;5068636;28;20179;-63
2022/01/05 02:23:36;;;;;;;7.30;2.80;;;;;;;19.19;59.04;98840.44;5070134;28;20602;-63
2022/01/05 02:26:03;;;;;;;9.60;2.70;;;;;;;19.17;59.27;98842.88;5070399;28;20453;-63
2022/01/05 02:28:28;;;;;;;6.83;2.93;;;;;;;19.17;58.88;98830.63;5068099;28;20183;-63
2022/01/05 02:30:54;;;;;;;7.47;3.13;;;;;;;19.17;59.22;98828.56;5052133;28;20409;-63
2022/01/05 02:33:20;;;;;;;5.70;2.90;;;;;;;19.16;59.20;98829.00;5069794;28;20203;-64
2022/01/05 02:35:46;;;;;;;7.43;2.80;;;;;;;19.16;59.35;98841.25;5069227;28;20179;-64
2022/01/05 02:38:11;;;;;;;7.20;2.57;;;;;;;19.17;59.01;98839.22;5069318;28;20898;-64
2022/01/05 02:40:37;;;;;;;7.20;2.73;;;;;;;19.14;59.41;98843.72;5070673;28;20547;-64
2022/01/05 02:43:02;;;;;;;8.33;2.50;;;;;;;19.15;59.02;98850.25;5069899;28;20186;-64
2022/01/05 02:45:28;;;;;;;6.73;3.10;;;;;;;19.16;59.41;98846.19;5069527;28;20179;-64
2022/01/05 02:47:55;;;;;;;9.63;3.27;;;;;;;19.14;59.20;98854.34;5068601;28;20635;-63
2022/01/05 02:50:21;;;;;;;6.23;2.73;;;;;;;19.14;59.23;98857.22;5069515;28;20186;-64
2022/01/05 02:52:46;;;;;;;6.10;2.20;;;;;;;19.13;59.25;98853.56;5069154;28;20457;-64
2022/01/05 02:55:12;;;;;;;7.17;2.70;;;;;;;19.16;59.12;98860.47;5069766;28;20240;-64
2022/01/05 02:57:37;;;;;;;8.00;2.53;;;;;;;19.13;59.33;98858.44;5069289;28;20235;-64
2022/01/05 03:00:05;;;;;;;6.00;2.50;;;;;;;19.13;59.37;98870.72;5069321;28;20230;-64
2022/01/05 03:02:31;;;;;;;9.77;2.80;;;;;;;19.17;59.09;98877.22;5051755;28;20184;-64
2022/01/05 03:04:56;;;;;;;7.23;2.60;;;;;;;19.13;59.27;98876.44;5069177;28;20452;-64
2022/01/05 03:07:21;;;;;;;16.73;3.07;;;;;;;19.13;59.06;98873.59;5068177;28;20677;-64
2022/01/05 03:09:47;;;;;;;6.27;2.57;;;;;;;19.10;59.06;98877.25;5069590;28;20183;-64
2022/01/05 03:12:13;;;;;;;7.20;2.30;;;;;;;19.12;58.86;98874.00;5069423;28;20206;-64
2022/01/05 03:14:39;;;;;;;7.67;3.07;;;;;;;19.09;59.22;98875.66;5051272;28;20256;-64
2022/01/05 03:17:04;;;;;;;6.83;2.73;;;;;;;19.12;59.34;98885.44;5069366;28;20413;-64
2022/01/05 03:19:29;;;;;;;9.13;3.17;;;;;;;19.14;58.66;98909.53;5068740;28;20229;-64
2022/01/05 03:21:55;;;;;;;6.17;2.40;;;;;;;19.11;59.04;98907.50;5069008;28;20635;-64
2022/01/05 03:24:20;;;;;;;9.10;2.87;;;;;;;19.11;58.91;98926.72;5068945;28;20578;-64
2022/01/05 03:26:46;;;;;;;9.03;2.40;;;;;;;19.09;59.00;98935.72;5068171;28;20536;-64
2022/01/05 03:29:11;;;;;;;5.37;2.10;;;;;;;19.08;59.10;98942.69;5068551;28;20178;-64
2022/01/05 03:31:37;;;;;;;6.60;2.67;;;;;;;19.08;59.10;98939.81;5069363;28;20190;-64
2022/01/05 03:34:04;;;;;;;6.07;2.47;;;;;;;19.05;59.72;98954.94;5067575;28;20190;-64
2022/01/05 03:36:30;;;;;;;7.30;3.00;;;;;;;19.08;59.28;98941.84;5068596;28;20186;-64
2022/01/05 03:38:55;;;;;;;6.37;2.40;;;;;;;19.09;59.08;98964.31;5071719;28;20424;-64
2022/01/05 03:41:20;;;;;;;5.37;2.73;;;;;;;19.07;59.21;98966.78;5070982;28;20178;-64
2022/01/05 03:43:46;;;;;;;6.73;2.53;;;;;;;19.05;59.24;98966.38;5088545;28;20204;-64
2022/01/05 03:46:11;;;;;;;5.83;3.07;;;;;;;19.04;59.04;98975.38;5084603;28;20205;-64
2022/01/05 03:48:37;;;;;;;5.53;2.23;;;;;;;19.04;59.15;98976.19;5089031;28;20240;-64
2022/01/05 03:51:02;;;;;;;5.30;2.40;;;;;;;19.04;59.74;98981.09;5089043;28;20654;-64
2022/01/05 03:53:28;;;;;;;6.13;2.40;;;;;;;19.04;59.18;98999.09;5088572;28;20198;-64
2022/01/05 03:55:53;;;;;;;7.17;2.73;;;;;;;19.05;59.03;98997.03;5089229;28;20179;-64
2022/01/05 03:58:18;;;;;;;6.07;3.10;;;;;;;19.06;59.22;99012.97;5088238;28;20175;-64
2022/01/05 04:00:46;;;;;;;6.37;2.73;;;;;;;19.07;58.90;99026.03;5070314;28;20226;-64
2022/01/05 04:03:11;;;;;;;4.43;2.40;;;;;;;19.05;59.03;99035.03;5088652;28;20219;-64
2022/01/05 04:05:37;;;;;;;5.33;1.97;;;;;;;19.04;58.66;99044.84;5088162;28;20495;-64
2022/01/05 04:08:03;;;;;;;10.53;2.30;;;;;;;19.01;58.88;99045.66;5089015;28;20194;-64
2022/01/05 04:10:28;;;;;;;9.00;2.27;;;;;;;19.04;59.04;99073.47;5088707;28;20208;-64
2022/01/05 04:12:54;;;;;;;8.40;2.37;;;;;;;19.03;59.10;99083.28;5088136;28;20194;-64
2022/01/05 04:15:19;;;;;;;4.67;2.17;;;;;;;19.02;59.04;99090.19;5073582;28;20646;-64
2022/01/05 04:17:45;;;;;;;6.10;2.37;;;;;;;19.04;59.28;99099.19;5069299;28;20175;-64
2022/01/05 04:20:11;;;;;;;5.73;2.40;;;;;;;19.02;58.73;99118.00;5067966;28;20183;-64
2022/01/05 04:22:36;;;;;;;6.90;2.33;;;;;;;19.00;59.32;99118.41;5067843;28;20265;-64
2022/01/05 04:25:02;;;;;;;6.93;2.27;;;;;;;19.03;58.77;99134.75;5074848;28;20421;-64
2022/01/05 04:27:27;;;;;;;10.83;2.80;;;;;;;18.99;59.06;99144.56;5067969;28;20221;-64
2022/01/05 04:29:53;;;;;;;3.67;2.33;;;;;;;19.03;58.72;99149.06;5067662;28;20179;-64
2022/01/05 04:32:18;;;;;;;4.50;2.40;;;;;;;18.99;59.00;99148.25;5068157;28;20206;-64
2022/01/05 04:34:44;;;;;;;4.43;2.13;;;;;;;18.97;59.21;99162.13;5068204;28;20607;-63
2022/01/05 04:37:09;;;;;;;6.83;2.07;;;;;;;18.99;58.91;99151.09;5067727;28;20644;-63
2022/01/05 04:39:35;;;;;;;6.17;2.03;;;;;;;18.99;59.00;99151.09;5070018;28;20194;-63
2022/01/05 04:42:00;;;;;;;5.40;2.30;;;;;;;19.00;59.05;99157.63;5072286;28;20170;-63
2022/01/05 04:44:26;;;;;;;5.80;2.50;;;;;;;19.01;58.75;99160.09;5072265;28;20167;-63
2022/01/05 04:46:51;;;;;;;4.73;2.20;;;;;;;19.00;58.95;99164.19;5071447;28;20171;-63
2022/01/05 04:49:16;;;;;;;4.90;2.20;;;;;;;19.00;58.86;99169.91;5071796;28;20181;-63
2022/01/05 04:51:42;;;;;;;5.47;2.37;;;;;;;19.01;58.98;99171.53;5072704;28;20156;-64
2022/01/05 04:54:07;;;;;;;5.60;2.20;;;;;;;18.99;59.19;99161.72;5071646;28;20214;-63
2022/01/05 04:56:33;;;;;;;3.60;1.87;;;;;;;18.98;58.89;99172.38;5071606;28;20175;-63
2022/01/05 04:58:58;;;;;;;5.17;2.20;;;;;;;18.98;58.78;99175.22;5070586;28;20179;-63
2022/01/05 05:01:24;;;;;;;3.67;1.70;;;;;;;18.97;58.88;99187.88;5071788;28;20533;-63
2022/01/05 05:03:50;;;;;;;3.57;1.83;;;;;;;18.98;58.73;99178.09;5071572;28;20186;-63
2022/01/05 05:06:15;;;;;;;4.13;2.00;;;;;;;19.00;58.73;99197.66;5070999;28;20223;-63
2022/01/05 05:08:40;;;;;;;4.90;2.07;;;;;;;18.97;58.72;99199.31;5071458;28;20428;-63
2022/01/05 05:11:06;;;;;;;5.77;2.20;;;;;;;19.01;58.61;99203.00;5072046;28;20167;-63
2022/01/05 05:13:31;;;;;;;5.57;2.23;;;;;;;18.98;58.83;99215.28;5070752;28;20265;-63
2022/01/05 05:15:57;;;;;;;4.40;1.83;;;;;;;19.01;58.56;99217.28;5071383;28;20182;-63
2022/01/05 05:18:22;;;;;;;5.23;1.97;;;;;;;19.00;58.53;99229.13;5070708;28;20635;-63
2022/01/05 05:20:47;;;;;;;4.23;2.50;;;;;;;19.00;58.70;99229.13;5071421;28;20175;-63
2022/01/05 05:23:13;;;;;;;3.83;2.53;;;;;;;18.98;58.75;99238.16;5071393;28;20189;-63
2022/01/05 05:25:38;;;;;;;5.33;1.97;;;;;;;18.99;58.71;99230.38;5070375;28;20175;-63
2022/01/05 05:28:04;;;;;;;3.67;1.80;;;;;;;18.98;58.88;99238.16;5071483;28;20220;-64
2022/01/05 05:30:29;;;;;;;6.13;2.13;;;;;;;18.98;58.59;99246.72;5070944;28;20175;-64
2022/01/05 05:32:57;;;;;;;3.40;1.80;;;;;;;18.99;58.60;99254.09;5070715;28;20195;-63
2022/01/05 05:35:23;;;;;;;4.00;2.00;;;;;;;18.97;58.83;99250.78;5071216;28;20611;-63
2022/01/05 05:37:48;;;;;;;5.43;2.40;;;;;;;18.98;58.24;99263.06;5070971;28;20460;-63
2022/01/05 05:40:13;;;;;;;5.17;2.00;;;;;;;18.99;58.51;99276.97;5071273;28;20171;-63
2022/01/05 05:42:39;;;;;;;4.07;1.60;;;;;;;18.99;58.52;99282.69;5071699;28;20236;-64
2022/01/05 05:45:05;;;;;;;4.80;1.70;;;;;;;18.97;58.70;99298.63;5091240;28;20182;-64
2022/01/05 05:47:31;;;;;;;4.80;1.80;;;;;;;18.98;58.61;99295.34;5091258;28;20680;-64
2022/01/05 05:49:56;;;;;;;4.00;2.00;;;;;;;18.97;58.44;99313.72;5090919;28;20421;-64
2022/01/05 05:52:22;;;;;;;4.67;1.67;;;;;;;18.98;58.59;99321.09;5067994;28;20613;-64
2022/01/05 05:54:47;;;;;;;5.53;2.03;;;;;;;18.98;58.46;99323.97;5070666;28;20516;-64
2022/01/05 05:57:12;;;;;;;4.67;1.67;;;;;;;18.98;58.92;99332.53;5090724;28;20660;-64
2022/01/05 05:59:38;;;;;;;3.10;1.70;;;;;;;18.95;58.75;99347.66;5090120;28;20218;-64
2022/01/05 06:02:03;;;;;;;6.10;1.97;;;;;;;18.97;58.55;99350.91;5090740;28;20182;-64
2022/01/05 06:04:29;;;;;;;3.73;2.00;;;;;;;18.96;58.91;99351.34;5091298;28;20166;-64
2022/01/05 06:06:55;;;;;;;3.87;1.53;;;;;;;18.95;58.25;99361.94;5090655;28;20816;-64
2022/01/05 06:09:20;;;;;;;5.77;1.90;;;;;;;18.98;59.03;99363.19;5071981;28;20263;-64
2022/01/05 06:11:46;;;;;;;4.97;1.80;;;;;;;18.97;58.50;99370.94;5090527;28;20174;-64
2022/01/05 06:14:11;;;;;;;4.47;2.00;;;;;;;18.95;58.48;99384.00;5090704;28;20190;-63
2022/01/05 06:16:37;;;;;;;2.70;1.50;;;;;;;18.97;58.76;99388.09;5091028;28;20208;-63
2022/01/05 06:19:02;;;;;;;3.53;1.63;;;;;;;18.98;58.53;99389.75;5072850;28;20191;-63
2022/01/05 06:21:28;;;;;;;4.87;2.20;;;;;;;18.98;58.38;99392.63;5031019;28;20673;-63
2022/01/05 06:23:53;;;;;;;3.17;1.77;;;;;;;18.98;58.53;99400.34;5057661;28;20189;-63
2022/01/05 06:26:20;;;;;;;5.80;1.80;;;;;;;18.95;58.88;99404.84;5069608;28;20175;-63
2022/01/05 06:28:46;;;;;;;3.13;1.70;;;;;;;18.92;58.91;99419.94;5069665;28;20573;-63
2022/01/05 06:31:11;;;;;;;3.87;1.60;;;;;;;18.98;58.28;99421.22;5070059;28;20410;-63
2022/01/05 06:33:36;;;;;;;4.20;2.07;;;;;;;18.94;58.74;99428.97;5066457;28;20195;-64
2022/01/05 06:36:02;;;;;;;3.63;1.60;;;;;;;18.96;58.43;99435.09;5049654;28;20635;-63
2022/01/05 06:38:28;;;;;;;4.33;1.93;;;;;;;18.96;58.44;99437.94;5049779;28;20186;-63
2022/01/05 06:40:53;;;;;;;4.00;1.90;;;;;;;18.95;58.10;99439.19;5049749;28;20175;-63
2022/01/05 06:43:18;;;;;;;4.10;1.93;;;;;;;18.95;58.57;99444.06;5049474;28;20178;-63
2022/01/05 06:45:44;;;;;;;4.00;1.97;;;;;;;18.93;58.35;99450.22;5049352;28;20179;-64
2022/01/05 06:48:09;;;;;;;6.17;2.10;;;;;;;18.96;58.22;99460.81;5049739;28;20183;-64
2022/01/05 06:50:35;;;;;;;3.50;1.97;;;;;;;18.97;58.20;99461.66;5050011;28;20198;-63
2022/01/05 06:53:01;;;;;;;3.37;1.90;;;;;;;18.94;58.10;99463.28;5049703;28;20677;-63
2022/01/05 06:55:27;;;;;;;2.73;1.43;;;;;;;18.99;58.01;99459.19;5055815;28;20171;-63
2022/01/05 06:57:52;;;;;;;4.20;2.10;;;;;;;18.94;58.44;99471.88;5069080;28;20777;-63
2022/01/05 07:00:18;;;;;;;3.93;1.30;;;;;;;18.94;58.30;99476.75;5068556;28;20231;-63
2022/01/05 07:02:44;;;;;;;3.27;1.43;;;;;;;18.97;58.46;99485.34;5067529;28;20163;-64
2022/01/05 07:05:10;;;;;;;4.43;1.70;;;;;;;18.94;58.55;99491.06;5069719;28;20425;-63
2022/01/05 07:07:37;;;;;;;2.80;1.60;;;;;;;18.93;58.52;99495.16;5069370;28;20690;-63
2022/01/05 07:10:05;;;;;;;3.10;1.60;;;;;;;18.93;58.39;99507.41;5069650;28;20475;-63
2022/01/05 07:12:30;;;;;;;4.37;2.00;;;;;;;18.92;58.40;99514.34;5068974;28;20848;-63
2022/01/05 07:14:55;;;;;;;2.47;1.50;;;;;;;18.91;58.64;99517.63;5068945;28;20476;-63
2022/01/05 07:17:21;;;;;;;4.67;1.80;;;;;;;18.93;58.24;99530.31;5068616;28;20195;-63
2022/01/05 07:19:46;;;;;;;2.70;1.43;;;;;;;18.92;58.43;99540.06;5069171;28;20233;-63
2022/01/05 07:22:12;;;;;;;3.70;1.60;;;;;;;18.95;58.36;99552.75;5068362;28;20178;-63
2022/01/05 07:24:37;;;;;;;3.40;1.80;;;;;;;18.95;58.43;99556.44;5068796;28;20175;-63
2022/01/05 07:27:03;;;;;;;5.73;1.47;;;;;;;18.94;58.07;99560.53;5069043;28;20182;-64
2022/01/05 07:29:28;;;;;;;3.10;1.50;;;;;;;18.95;58.12;99562.16;5069201;28;20269;-63
2022/01/05 07:31:53;;;;;;;6.30;1.60;;;;;;;18.93;58.50;99569.50;5068827;28;20171;-64
2022/01/05 07:34:19;;;;;;;5.30;1.43;;;;;;;18.92;58.41;99580.13;5068520;28;20217;-63
2022/01/05 07:36:44;;;;;;;3.63;1.60;;;;;;;18.92;58.58;99574.41;5068178;28;20175;-63
2022/01/05 07:39:10;;;;;;;4.73;1.40;;;;;;;18.95;58.28;99590.78;5068538;28;20238;-63
2022/01/05 07:41:36;;;;;;;3.17;1.63;;;;;;;18.93;58.28;99593.22;5068520;28;20174;-63
2022/01/05 07:44:01;;;;;;;2.20;1.20;;;;;;;18.96;58.02;99609.56;5068785;28;20175;-63
2022/01/05 07:46:27;;;;;;;4.20;1.73;;;;;;;18.96;58.12;99617.34;5068521;28;20186;-63
2022/01/05 07:48:52;;;;;;;3.67;1.57;;;;;;;18.93;58.36;99616.09;5077474;28;20182;-63
2022/01/05 07:51:18;;;;;;;3.00;1.50;;;;;;;18.94;58.30;99622.63;5088379;28;20646;-63
2022/01/05 07:53:43;;;;;;;3.60;1.10;;;;;;;18.96;57.98;99632.44;5088388;28;20293;-63
2022/01/05 07:56:09;;;;;;;3.23;1.47;;;;;;;18.95;57.93;99633.69;5088336;28;20175;-63
2022/01/05 07:58:37;;;;;;;2.60;1.40;;;;;;;18.92;58.12;99634.47;5085418;28;20174;-63
2022/01/05 08:01:03;;;;;;;3.70;1.60;;;;;;;18.92;58.04;99628.75;5088888;28;20681;-63
2022/01/05 08:03:30;;;;;;;4.90;1.50;;;;;;;18.92;58.48;99636.53;5088756;28;20466;-63
2022/01/05 08:05:56;;;;;;;3.27;1.60;;;;;;;18.96;58.29;99645.97;5088609;28;20529;-63
2022/01/05 08:08:21;;;;;;;3.03;1.50;;;;;;;18.93;58.40;99641.84;5088713;28;20985;-63
2022/01/05 08:10:47;;;;;;;3.50;1.40;;;;;;;18.93;58.10;99639.00;5087728;28;20162;-63
2022/01/05 08:13:12;;;;;;;3.07;1.63;;;;;;;18.95;58.13;99652.88;5088426;28;20198;-63
2022/01/05 08:15:37;;;;;;;3.00;1.33;;;;;;;18.95;57.68;99653.69;5080244;28;20171;-63
2022/01/05 08:18:03;;;;;;;4.07;1.80;;;;;;;18.96;57.88;99657.41;5083230;28;20835;-63
2022/01/05 08:20:28;;;;;;;2.73;1.20;;;;;;;18.96;58.02;99668.84;5095407;28;20170;-63
2022/01/05 08:22:54;;;;;;;4.50;1.40;;;;;;;18.94;57.98;99671.25;5085972;28;20589;-63
2022/01/05 08:25:20;;;;;;;2.73;1.27;;;;;;;18.98;57.91;99678.66;5075481;28;20175;-63
2022/01/05 08:27:46;;;;;;;2.43;1.20;;;;;;;18.95;57.88;99681.47;5073473;28;20229;-63
2022/01/05 08:30:33;;;;;;;4.80;1.63;;;;;;;18.94;58.26;99674.94;5072785;28;20428;-63
2022/01/05 08:33:00;;;;;;;6.43;1.60;;;;;;;18.93;58.05;99684.75;5074542;28;20197;-63
2022/01/05 08:35:26;;;;;;;5.57;1.30;;;;;;;18.98;57.90;99692.97;5074557;28;20531;-63
2022/01/05 08:37:52;;;;;;;3.10;1.60;;;;;;;18.94;58.39;99685.56;5074868;28;20418;-63
2022/01/05 08:40:19;;;;;;;4.07;1.50;;;;;;;18.94;57.97;99685.56;5074362;28;20516;-63
2022/01/05 08:42:44;;;;;;;3.60;1.63;;;;;;;18.94;58.24;99689.25;5075069;28;20626;-63
2022/01/05 08:45:10;;;;;;;1.90;1.20;;;;;;;18.94;58.06;99691.28;5074922;28;20413;-63
2022/01/05 08:47:35;;;;;;;3.80;1.40;;;;;;;18.93;58.02;99699.06;5074308;28;20179;-63
2022/01/05 08:50:01;;;;;;;2.90;1.57;;;;;;;18.92;58.11;99700.25;5074662;28;20239;-63
2022/01/05 08:52:26;;;;;;;2.83;1.17;;;;;;;18.96;57.88;99706.03;5074859;28;20565;-63
2022/01/05 08:54:52;;;;;;;2.80;1.30;;;;;;;18.95;57.76;99710.91;5074257;28;20171;-63
2022/01/05 08:57:17;;;;;;;4.03;1.60;;;;;;;18.94;57.72;99709.28;5074444;28;20159;-63
2022/01/05 08:59:43;;;;;;;4.60;1.70;;;;;;;18.94;58.01;99717.03;5065990;28;20215;-63
2022/01/05 09:02:09;;;;;;;3.60;1.70;;;;;;;18.96;57.88;99712.56;5054226;28;20222;-63
2022/01/05 09:04:34;;;;;;;2.87;1.50;;;;;;;18.96;57.85;99717.47;5054665;28;20183;-63
2022/01/05 09:07:00;;;;;;;3.30;1.50;;;;;;;19.01;57.78;99734.25;5053679;28;20742;-63
2022/01/05 09:09:26;;;;;;;2.80;1.23;;;;;;;18.99;57.72;99728.94;5054166;28;20176;-63
2022/01/05 09:11:51;;;;;;;3.43;1.47;;;;;;;18.97;57.66;99736.25;5054217;28;20202;-62
2022/01/05 09:14:17;;;;;;;3.50;1.20;;;;;;;19.00;57.46;99735.44;5054078;28;20671;-62
2022/01/05 09:16:42;;;;;;;2.47;1.30;;;;;;;18.99;57.52;99740.38;5054842;28;20187;-62
2022/01/05 09:19:07;;;;;;;3.57;1.47;;;;;;;18.99;57.64;99739.53;5072227;28;20171;-62
2022/01/05 09:21:33;;;;;;;2.90;1.27;;;;;;;18.96;57.90;99746.88;5074324;28;20206;-62
2022/01/05 09:23:59;;;;;;;2.63;1.27;;;;;;;18.95;57.83;99744.41;5074255;28;20179;-62
2022/01/05 09:26:24;;;;;;;4.27;1.27;;;;;;;18.95;57.85;99756.69;5053194;28;20175;-62
2022/01/05 09:28:49;;;;;;;3.50;1.40;;;;;;;18.98;57.61;99767.34;5070548;28;20175;-62
2022/01/05 09:31:15;;;;;;;3.00;1.37;;;;;;;18.97;57.82;99765.66;5071336;28;20171;-63
2022/01/05 09:33:40;;;;;;;2.60;1.40;;;;;;;18.99;57.69;99763.25;5070885;28;20195;-63
2022/01/05 09:36:17;;;;;;;4.50;1.80;;;;;;;18.98;57.77;99769.38;5071675;28;20171;-63
2022/01/05 09:43:56;;;;;;;3.30;1.23;;;;;;;19.00;57.40;99789.81;5071182;28;20616;-63
2022/01/05 09:46:37;;;;;;;3.33;1.50;;;;;;;18.99;57.53;99797.59;5074300;28;20424;-63
2022/01/05 09:49:10;;;;;;;1.80;1.00;;;;;;;19.01;57.61;99788.63;5090512;28;20420;-62
2022/01/05 09:51:35;;;;;;;2.73;1.40;;;;;;;19.01;57.47;99805.78;5090929;28;20919;-62
2022/01/05 09:54:01;;;;;;;3.03;0.93;;;;;;;19.00;57.49;99807.81;5070841;28;20455;-62
2022/01/05 09:56:31;;;;;;;4.33;1.50;;;;;;;18.99;57.72;99808.19;5088853;28;20216;-62
2022/01/05 09:59:00;;;;;;;2.47;1.40;;;;;;;18.97;57.68;99814.31;5072077;28;20174;-62
2022/01/05 10:01:28;;;;;;;2.70;1.27;;;;;;;19.02;57.29;99813.94;5073060;28;20515;-62
2022/01/05 10:03:58;;;;;;;4.07;1.30;;;;;;;19.01;57.71;99820.09;5090323;28;20919;-62
2022/01/05 10:06:23;;;;;;;2.90;1.80;;;;;;;19.00;57.21;99819.25;5072557;28;20444;-62
2022/01/05 10:08:49;;;;;;;2.30;1.10;;;;;;;18.98;57.67;99813.13;5090313;28;20408;-63
2022/01/05 10:11:14;;;;;;;2.30;1.20;;;;;;;19.02;57.26;99813.94;5091123;28;20162;-63
2022/01/05 10:13:39;;;;;;;3.13;1.20;;;;;;;19.02;57.26;99808.22;5079227;28;20203;-63
2022/01/05 10:16:05;;;;;;;3.27;1.40;;;;;;;19.01;57.48;99818.03;5070253;28;20234;-63
2022/01/05 10:18:40;;;;;;;2.40;1.30;;;;;;;18.99;57.38;99816.78;5081188;28;20554;-63
2022/01/05 10:21:06;;;;;;;3.53;1.30;;;;;;;19.03;57.25;99811.91;5084454;28;20216;-63
2022/01/05 10:23:39;;;;;;;2.57;1.30;;;;;;;19.04;57.38;99817.25;5069902;28;21213;-63
2022/01/05 10:26:20;;;;;;;2.20;1.30;;;;;;;19.03;56.87;99821.31;5070789;28;20171;-63
2022/01/05 10:28:46;;;;;;;3.27;1.20;;;;;;;19.01;57.74;99832.31;5058619;28;20425;-63
2022/01/05 10:31:19;;;;;;;3.13;1.10;;;;;;;19.01;57.12;99835.19;5049952;28;20414;-63
2022/01/05 10:33:45;;;;;;;3.10;1.30;;;;;;;19.00;57.81;99835.56;5064993;28;20264;-63
2022/01/05 10:36:10;;;;;;;3.20;1.10;;;;;;;19.00;57.40;99836.41;5069978;28;20405;-62
2022/01/05 10:38:36;;;;;;;2.53;1.30;;;;;;;19.01;57.09;99837.25;5070027;28;20207;-62
2022/01/05 10:41:17;;;;;;;3.23;1.30;;;;;;;19.00;57.34;99844.16;5088233;28;20534;-63
2022/01/05 10:44:08;;;;;;;2.83;1.23;;;;;;;18.98;57.42;99840.88;5090087;28;20197;-63
2022/01/05 10:46:53;;;;;;;2.70;1.70;;;;;;;18.98;57.24;99841.72;5090749;28;20396;-62
2022/01/05 10:49:38;;;;;;;3.20;1.13;;;;;;;18.99;57.29;99836.81;5089655;28;20749;-62
2022/01/05 10:52:24;;;;;;;2.00;1.10;;;;;;;18.97;57.22;99837.19;5089966;28;20507;-62
2022/01/05 10:54:49;;;;;;;2.60;1.40;;;;;;;19.00;57.09;99841.31;5089353;28;20440;-62
2022/01/05 10:57:15;;;;;;;3.13;1.10;;;;;;;18.98;57.22;99844.59;5089437;28;20427;-62
2022/01/05 10:59:44;;;;;;;3.07;1.20;;;;;;;18.99;57.14;99849.06;5071053;28;20236;-62
2022/01/05 11:02:23;;;;;;;2.43;1.20;;;;;;;18.96;57.46;99849.84;5089938;28;20373;-63
2022/01/05 11:04:49;;;;;;;3.80;1.80;;;;;;;19.02;57.38;99848.28;5069037;28;20429;-63
2022/01/05 11:07:25;;;;;;;2.43;1.10;;;;;;;19.02;56.89;99862.56;5051138;28;20512;-63
2022/01/05 11:09:58;;;;;;;2.90;1.10;;;;;;;18.98;57.32;99858.88;5068567;28;20795;-63
2022/01/05 11:12:37;;;;;;;1.73;0.90;;;;;;;18.97;57.54;99873.56;5068638;28;20496;-62
2022/01/05 11:15:22;;;;;;;2.30;1.17;;;;;;;18.98;56.89;99880.94;5051530;28;20413;-63
2022/01/05 11:18:12;;;;;;;3.00;1.03;;;;;;;19.01;57.27;99868.72;5075434;28;20447;-63
2022/01/05 11:20:49;;;;;;;3.80;1.47;;;;;;;19.01;57.17;99865.84;5089533;28;20466;-63
2022/01/05 11:23:15;;;;;;;2.60;1.30;;;;;;;18.95;57.50;99868.25;5090002;28;20422;-62
2022/01/05 11:25:42;;;;;;;4.67;1.10;;;;;;;18.98;56.95;99860.91;5088913;28;20816;-63
2022/01/05 11:28:07;;;;;;;2.90;1.07;;;;;;;18.98;57.13;99872.34;5087340;28;20405;-63
2022/01/05 11:30:33;;;;;;;2.90;1.30;;;;;;;18.98;56.83;99876.06;5071084;28;20758;-62
2022/01/05 11:32:59;;;;;;;3.10;1.20;;;;;;;18.99;56.84;99880.53;5065147;28;20287;-62
2022/01/05 11:35:24;;;;;;;2.63;1.50;;;;;;;18.98;56.99;99878.91;5048673;28;20256;-63
2022/01/05 11:37:50;;;;;;;3.00;1.43;;;;;;;19.03;56.79;99880.56;5048778;28;20267;-63